sensor_id;sensor_type;location;lat;lon;timestamp;P1;durP1;ratioP1;P2;durP2;ratioP2
81124;SDS011;72192;52.114;5.424;2023-08-24T00:02:04;9.95;;;4.80;;
81124;SDS011;72192;52.114;5.424;2023-08-24T00:04:51;10.35;;;5.40;;
81124;SDS011;72192;52.114;5.424;2023-08-24T00:07:31;9.98;;;4.80;;
81124;SDS011;72192;52.114;5.424;2023-08-24T00:13:04;5.93;;;2.90;;
81124;SDS011;72192;52.114;5.424;2023-08-24T00:15:47;10.32;;;4.15;;
81124;SDS011;72192;52.114;5.424;2023-08-24T00:18:35;8.15;;;4.03;;
81124;SDS011;72192;52.114;5.424;2023-08-24T00:21:15;10.07;;;4.05;;
81124;SDS011;72192;52.114;5.424;2023-08-24T00:23:57;9.32;;;4.68;;
81124;SDS011;72192;52.114;5.424;2023-08-24T00:26:37;10.85;;;4.70;;
81124;SDS011;72192;52.114;5.424;2023-08-24T00:29:18;7.95;;;4.63;;
81124;SDS011;72192;52.114;5.424;2023-08-24T00:31:59;10.48;;;5.32;;
81124;SDS011;72192;52.114;5.424;2023-08-24T00:34:39;12.85;;;4.85;;
81124;SDS011;72192;52.114;5.424;2023-08-24T00:37:19;9.93;;;5.18;;
81124;SDS011;72192;52.114;5.424;2023-08-24T00:40:04;10.85;;;4.93;;
81124;SDS011;72192;52.114;5.424;2023-08-24T00:42:48;9.10;;;4.18;;
81124;SDS011;72192;52.114;5.424;2023-08-24T00:48:25;6.68;;;3.58;;
81124;SDS011;72192;52.114;5.424;2023-08-24T00:51:15;7.55;;;3.67;;
81124;SDS011;72192;52.114;5.424;2023-08-24T00:56:52;7.82;;;4.50;;
81124;SDS011;72192;52.114;5.424;2023-08-24T00:59:33;9.20;;;4.60;;
81124;SDS011;72192;52.114;5.424;2023-08-24T01:05:14;6.22;;;3.40;;
81124;SDS011;72192;52.114;5.424;2023-08-24T01:07:53;7.50;;;3.58;;
81124;SDS011;72192;52.114;5.424;2023-08-24T01:10:45;8.82;;;4.13;;
81124;SDS011;72192;52.114;5.424;2023-08-24T01:14:30;8.05;;;3.80;;
81124;SDS011;72192;52.114;5.424;2023-08-24T01:17:34;7.82;;;4.30;;
81124;SDS011;72192;52.114;5.424;2023-08-24T01:20:18;8.25;;;4.25;;
81124;SDS011;72192;52.114;5.424;2023-08-24T01:23:13;6.78;;;3.92;;
81124;SDS011;72192;52.114;5.424;2023-08-24T01:26:16;8.02;;;4.75;;
81124;SDS011;72192;52.114;5.424;2023-08-24T01:28:58;9.23;;;4.25;;
81124;SDS011;72192;52.114;5.424;2023-08-24T01:31:47;7.60;;;4.28;;
81124;SDS011;72192;52.114;5.424;2023-08-24T01:34:37;9.27;;;4.40;;
81124;SDS011;72192;52.114;5.424;2023-08-24T01:37:20;8.90;;;4.85;;
81124;SDS011;72192;52.114;5.424;2023-08-24T01:40:13;8.68;;;4.88;;
81124;SDS011;72192;52.114;5.424;2023-08-24T01:43:09;8.73;;;4.90;;
81124;SDS011;72192;52.114;5.424;2023-08-24T01:46:03;7.85;;;4.68;;
81124;SDS011;72192;52.114;5.424;2023-08-24T01:48:57;9.43;;;4.63;;
81124;SDS011;72192;52.114;5.424;2023-08-24T01:51:38;8.63;;;4.72;;
81124;SDS011;72192;52.114;5.424;2023-08-24T01:54:30;7.53;;;3.83;;
81124;SDS011;72192;52.114;5.424;2023-08-24T01:57:11;7.45;;;4.00;;
81124;SDS011;72192;52.114;5.424;2023-08-24T01:59:51;7.68;;;4.32;;
81124;SDS011;72192;52.114;5.424;2023-08-24T02:02:31;9.70;;;4.30;;
81124;SDS011;72192;52.114;5.424;2023-08-24T02:05:13;7.75;;;4.13;;
81124;SDS011;72192;52.114;5.424;2023-08-24T02:08:08;9.52;;;4.70;;
81124;SDS011;72192;52.114;5.424;2023-08-24T02:10:50;8.95;;;4.28;;
81124;SDS011;72192;52.114;5.424;2023-08-24T02:13:33;8.88;;;5.13;;
81124;SDS011;72192;52.114;5.424;2023-08-24T02:16:16;8.52;;;4.53;;
81124;SDS011;72192;52.114;5.424;2023-08-24T02:19:00;9.38;;;4.13;;
81124;SDS011;72192;52.114;5.424;2023-08-24T02:21:40;10.13;;;4.47;;
81124;SDS011;72192;52.114;5.424;2023-08-24T02:24:20;9.13;;;5.07;;
81124;SDS011;72192;52.114;5.424;2023-08-24T02:27:00;9.82;;;5.22;;
81124;SDS011;72192;52.114;5.424;2023-08-24T02:29:40;12.05;;;5.50;;
81124;SDS011;72192;52.114;5.424;2023-08-24T02:35:11;10.23;;;5.40;;
81124;SDS011;72192;52.114;5.424;2023-08-24T02:37:51;9.80;;;5.35;;
81124;SDS011;72192;52.114;5.424;2023-08-24T02:43:12;8.82;;;5.07;;
81124;SDS011;72192;52.114;5.424;2023-08-24T02:45:53;13.73;;;5.78;;
81124;SDS011;72192;52.114;5.424;2023-08-24T02:48:33;12.18;;;5.72;;
81124;SDS011;72192;52.114;5.424;2023-08-24T02:51:13;10.10;;;5.22;;
81124;SDS011;72192;52.114;5.424;2023-08-24T02:53:53;11.23;;;5.82;;
81124;SDS011;72192;52.114;5.424;2023-08-24T02:56:35;10.15;;;5.32;;
81124;SDS011;72192;52.114;5.424;2023-08-24T02:59:26;12.73;;;5.78;;
81124;SDS011;72192;52.114;5.424;2023-08-24T03:02:06;10.95;;;5.90;;
81124;SDS011;72192;52.114;5.424;2023-08-24T03:04:51;14.00;;;6.85;;
81124;SDS011;72192;52.114;5.424;2023-08-24T03:07:32;12.70;;;6.30;;
81124;SDS011;72192;52.114;5.424;2023-08-24T03:10:12;15.38;;;6.47;;
81124;SDS011;72192;52.114;5.424;2023-08-24T03:12:52;11.55;;;6.60;;
81124;SDS011;72192;52.114;5.424;2023-08-24T03:15:31;12.40;;;6.13;;
81124;SDS011;72192;52.114;5.424;2023-08-24T03:18:13;9.95;;;5.65;;
81124;SDS011;72192;52.114;5.424;2023-08-24T03:20:55;10.38;;;6.03;;
81124;SDS011;72192;52.114;5.424;2023-08-24T03:23:35;12.05;;;5.78;;
81124;SDS011;72192;52.114;5.424;2023-08-24T03:26:14;14.00;;;6.40;;
81124;SDS011;72192;52.114;5.424;2023-08-24T03:28:54;12.43;;;6.00;;
81124;SDS011;72192;52.114;5.424;2023-08-24T03:31:34;15.35;;;7.20;;
81124;SDS011;72192;52.114;5.424;2023-08-24T03:34:13;13.93;;;6.45;;
81124;SDS011;72192;52.114;5.424;2023-08-24T03:36:54;12.77;;;6.68;;
81124;SDS011;72192;52.114;5.424;2023-08-24T03:39:36;13.90;;;7.25;;
81124;SDS011;72192;52.114;5.424;2023-08-24T03:42:28;12.70;;;6.97;;
81124;SDS011;72192;52.114;5.424;2023-08-24T03:45:08;13.93;;;6.78;;
81124;SDS011;72192;52.114;5.424;2023-08-24T03:47:48;10.20;;;5.63;;
81124;SDS011;72192;52.114;5.424;2023-08-24T03:50:28;10.10;;;6.20;;
81124;SDS011;72192;52.114;5.424;2023-08-24T03:53:08;9.50;;;5.80;;
81124;SDS011;72192;52.114;5.424;2023-08-24T03:55:48;15.57;;;7.22;;
81124;SDS011;72192;52.114;5.424;2023-08-24T03:58:37;10.32;;;6.05;;
81124;SDS011;72192;52.114;5.424;2023-08-24T04:01:20;11.32;;;6.40;;
81124;SDS011;72192;52.114;5.424;2023-08-24T04:04:00;14.25;;;7.38;;
81124;SDS011;72192;52.114;5.424;2023-08-24T04:06:40;14.32;;;7.25;;
81124;SDS011;72192;52.114;5.424;2023-08-24T04:09:19;12.27;;;6.50;;
81124;SDS011;72192;52.114;5.424;2023-08-24T04:11:59;13.20;;;6.47;;
81124;SDS011;72192;52.114;5.424;2023-08-24T04:14:39;10.77;;;6.20;;
81124;SDS011;72192;52.114;5.424;2023-08-24T04:17:19;12.48;;;6.18;;
81124;SDS011;72192;52.114;5.424;2023-08-24T04:19:58;12.10;;;5.88;;
81124;SDS011;72192;52.114;5.424;2023-08-24T04:22:38;12.00;;;6.07;;
81124;SDS011;72192;52.114;5.424;2023-08-24T04:25:18;13.60;;;6.50;;
81124;SDS011;72192;52.114;5.424;2023-08-24T04:27:58;23.70;;;7.45;;
81124;SDS011;72192;52.114;5.424;2023-08-24T04:30:37;13.98;;;7.68;;
81124;SDS011;72192;52.114;5.424;2023-08-24T04:33:17;13.45;;;7.00;;
81124;SDS011;72192;52.114;5.424;2023-08-24T04:35:57;12.85;;;6.20;;
81124;SDS011;72192;52.114;5.424;2023-08-24T04:38:38;11.60;;;6.53;;
81124;SDS011;72192;52.114;5.424;2023-08-24T04:41:17;16.25;;;7.47;;
81124;SDS011;72192;52.114;5.424;2023-08-24T04:43:57;13.13;;;6.60;;
81124;SDS011;72192;52.114;5.424;2023-08-24T04:46:37;13.85;;;6.95;;
81124;SDS011;72192;52.114;5.424;2023-08-24T04:49:16;11.98;;;6.72;;
81124;SDS011;72192;52.114;5.424;2023-08-24T04:52:06;12.77;;;6.82;;
81124;SDS011;72192;52.114;5.424;2023-08-24T04:54:50;13.00;;;6.90;;
81124;SDS011;72192;52.114;5.424;2023-08-24T04:57:29;13.07;;;6.70;;
81124;SDS011;72192;52.114;5.424;2023-08-24T05:00:12;12.77;;;7.13;;
81124;SDS011;72192;52.114;5.424;2023-08-24T05:02:54;13.38;;;6.78;;
81124;SDS011;72192;52.114;5.424;2023-08-24T05:05:44;12.75;;;6.32;;
81124;SDS011;72192;52.114;5.424;2023-08-24T05:08:28;11.90;;;6.47;;
81124;SDS011;72192;52.114;5.424;2023-08-24T05:11:13;12.20;;;6.65;;
81124;SDS011;72192;52.114;5.424;2023-08-24T05:13:57;13.00;;;6.30;;
81124;SDS011;72192;52.114;5.424;2023-08-24T05:16:36;11.82;;;6.35;;
81124;SDS011;72192;52.114;5.424;2023-08-24T05:19:16;12.93;;;6.80;;
81124;SDS011;72192;52.114;5.424;2023-08-24T05:21:58;14.00;;;7.22;;
81124;SDS011;72192;52.114;5.424;2023-08-24T05:24:38;11.90;;;6.90;;
81124;SDS011;72192;52.114;5.424;2023-08-24T05:27:17;10.48;;;5.95;;
81124;SDS011;72192;52.114;5.424;2023-08-24T05:29:57;14.30;;;6.30;;
81124;SDS011;72192;52.114;5.424;2023-08-24T05:32:37;13.73;;;6.65;;
81124;SDS011;72192;52.114;5.424;2023-08-24T05:35:16;11.15;;;6.07;;
81124;SDS011;72192;52.114;5.424;2023-08-24T05:37:56;13.50;;;6.55;;
81124;SDS011;72192;52.114;5.424;2023-08-24T05:40:36;13.55;;;7.70;;
81124;SDS011;72192;52.114;5.424;2023-08-24T05:43:21;13.75;;;7.35;;
81124;SDS011;72192;52.114;5.424;2023-08-24T05:46:04;13.52;;;7.72;;
81124;SDS011;72192;52.114;5.424;2023-08-24T05:48:44;16.33;;;6.90;;
81124;SDS011;72192;52.114;5.424;2023-08-24T05:51:26;15.48;;;7.50;;
81124;SDS011;72192;52.114;5.424;2023-08-24T05:54:05;14.77;;;7.57;;
81124;SDS011;72192;52.114;5.424;2023-08-24T05:56:45;17.95;;;10.65;;
81124;SDS011;72192;52.114;5.424;2023-08-24T05:59:26;14.02;;;7.45;;
81124;SDS011;72192;52.114;5.424;2023-08-24T06:02:06;14.45;;;7.63;;
81124;SDS011;72192;52.114;5.424;2023-08-24T06:04:46;13.75;;;6.88;;
81124;SDS011;72192;52.114;5.424;2023-08-24T06:10:11;14.05;;;6.72;;
81124;SDS011;72192;52.114;5.424;2023-08-24T06:12:51;14.35;;;6.22;;
81124;SDS011;72192;52.114;5.424;2023-08-24T06:15:31;13.80;;;5.72;;
81124;SDS011;72192;52.114;5.424;2023-08-24T06:18:11;9.90;;;6.30;;
81124;SDS011;72192;52.114;5.424;2023-08-24T06:20:52;12.73;;;7.15;;
81124;SDS011;72192;52.114;5.424;2023-08-24T06:23:33;12.20;;;6.18;;
81124;SDS011;72192;52.114;5.424;2023-08-24T06:26:13;15.00;;;6.38;;
81124;SDS011;72192;52.114;5.424;2023-08-24T06:28:53;11.52;;;6.15;;
81124;SDS011;72192;52.114;5.424;2023-08-24T06:31:33;10.73;;;5.85;;
81124;SDS011;72192;52.114;5.424;2023-08-24T06:34:27;11.35;;;6.07;;
81124;SDS011;72192;52.114;5.424;2023-08-24T06:37:07;11.85;;;5.75;;
81124;SDS011;72192;52.114;5.424;2023-08-24T06:39:49;12.90;;;6.28;;
81124;SDS011;72192;52.114;5.424;2023-08-24T06:42:37;15.18;;;6.47;;
81124;SDS011;72192;52.114;5.424;2023-08-24T06:45:17;13.75;;;6.68;;
81124;SDS011;72192;52.114;5.424;2023-08-24T06:47:58;10.45;;;6.85;;
81124;SDS011;72192;52.114;5.424;2023-08-24T06:50:38;10.00;;;5.82;;
81124;SDS011;72192;52.114;5.424;2023-08-24T06:53:17;11.93;;;6.88;;
81124;SDS011;72192;52.114;5.424;2023-08-24T06:55:59;10.70;;;6.55;;
81124;SDS011;72192;52.114;5.424;2023-08-24T06:58:42;17.63;;;7.32;;
81124;SDS011;72192;52.114;5.424;2023-08-24T07:01:23;14.63;;;7.65;;
81124;SDS011;72192;52.114;5.424;2023-08-24T07:04:03;13.15;;;7.13;;
81124;SDS011;72192;52.114;5.424;2023-08-24T07:06:43;13.20;;;7.45;;
81124;SDS011;72192;52.114;5.424;2023-08-24T07:09:31;12.65;;;8.10;;
81124;SDS011;72192;52.114;5.424;2023-08-24T07:12:20;14.60;;;7.32;;
81124;SDS011;72192;52.114;5.424;2023-08-24T07:15:08;14.90;;;8.05;;
81124;SDS011;72192;52.114;5.424;2023-08-24T07:17:51;13.80;;;7.80;;
81124;SDS011;72192;52.114;5.424;2023-08-24T07:20:40;14.50;;;8.88;;
81124;SDS011;72192;52.114;5.424;2023-08-24T07:23:29;14.68;;;8.13;;
81124;SDS011;72192;52.114;5.424;2023-08-24T07:26:12;14.63;;;9.02;;
81124;SDS011;72192;52.114;5.424;2023-08-24T07:29:00;12.75;;;7.90;;
81124;SDS011;72192;52.114;5.424;2023-08-24T07:31:48;13.23;;;8.85;;
81124;SDS011;72192;52.114;5.424;2023-08-24T07:34:37;25.65;;;14.27;;
81124;SDS011;72192;52.114;5.424;2023-08-24T07:37:20;25.88;;;15.00;;
81124;SDS011;72192;52.114;5.424;2023-08-24T07:40:05;14.07;;;8.55;;
81124;SDS011;72192;52.114;5.424;2023-08-24T07:42:47;13.25;;;7.97;;
81124;SDS011;72192;52.114;5.424;2023-08-24T07:45:42;29.20;;;17.27;;
81124;SDS011;72192;52.114;5.424;2023-08-24T07:48:31;13.00;;;8.00;;
81124;SDS011;72192;52.114;5.424;2023-08-24T07:51:21;13.48;;;8.73;;
81124;SDS011;72192;52.114;5.424;2023-08-24T07:54:01;12.25;;;7.70;;
81124;SDS011;72192;52.114;5.424;2023-08-24T07:56:50;13.25;;;8.45;;
81124;SDS011;72192;52.114;5.424;2023-08-24T07:59:39;14.85;;;8.65;;
81124;SDS011;72192;52.114;5.424;2023-08-24T08:02:23;14.43;;;8.23;;
81124;SDS011;72192;52.114;5.424;2023-08-24T08:05:11;15.75;;;8.65;;
81124;SDS011;72192;52.114;5.424;2023-08-24T08:07:59;14.60;;;8.55;;
81124;SDS011;72192;52.114;5.424;2023-08-24T08:10:47;14.93;;;8.02;;
81124;SDS011;72192;52.114;5.424;2023-08-24T08:13:48;14.82;;;7.80;;
81124;SDS011;72192;52.114;5.424;2023-08-24T08:16:38;13.85;;;8.60;;
81124;SDS011;72192;52.114;5.424;2023-08-24T08:19:26;14.88;;;9.48;;
81124;SDS011;72192;52.114;5.424;2023-08-24T08:22:06;13.80;;;7.82;;
81124;SDS011;72192;52.114;5.424;2023-08-24T08:24:56;15.20;;;8.35;;
81124;SDS011;72192;52.114;5.424;2023-08-24T08:27:44;14.23;;;8.50;;
81124;SDS011;72192;52.114;5.424;2023-08-24T08:30:34;15.05;;;9.10;;
81124;SDS011;72192;52.114;5.424;2023-08-24T08:33:04;15.98;;;8.93;;
81124;SDS011;72192;52.114;5.424;2023-08-24T08:35:53;14.73;;;9.27;;
81124;SDS011;72192;52.114;5.424;2023-08-24T08:38:41;12.45;;;8.23;;
81124;SDS011;72192;52.114;5.424;2023-08-24T08:41:31;17.15;;;9.00;;
81124;SDS011;72192;52.114;5.424;2023-08-24T08:44:32;12.85;;;8.25;;
81124;SDS011;72192;52.114;5.424;2023-08-24T08:47:20;14.30;;;8.68;;
81124;SDS011;72192;52.114;5.424;2023-08-24T08:50:10;17.50;;;7.85;;
81124;SDS011;72192;52.114;5.424;2023-08-24T08:52:54;12.98;;;8.27;;
81124;SDS011;72192;52.114;5.424;2023-08-24T08:55:37;14.77;;;8.35;;
81124;SDS011;72192;52.114;5.424;2023-08-24T08:58:20;13.75;;;8.48;;
81124;SDS011;72192;52.114;5.424;2023-08-24T09:01:01;11.60;;;7.88;;
81124;SDS011;72192;52.114;5.424;2023-08-24T09:03:53;15.98;;;8.18;;
81124;SDS011;72192;52.114;5.424;2023-08-24T09:06:42;11.57;;;7.95;;
81124;SDS011;72192;52.114;5.424;2023-08-24T09:09:31;14.27;;;7.95;;
81124;SDS011;72192;52.114;5.424;2023-08-24T09:12:15;13.60;;;7.88;;
81124;SDS011;72192;52.114;5.424;2023-08-24T09:15:04;16.20;;;8.20;;
81124;SDS011;72192;52.114;5.424;2023-08-24T09:17:53;12.52;;;7.63;;
81124;SDS011;72192;52.114;5.424;2023-08-24T09:20:42;15.02;;;9.15;;
81124;SDS011;72192;52.114;5.424;2023-08-24T09:23:30;13.82;;;9.20;;
81124;SDS011;72192;52.114;5.424;2023-08-24T09:26:32;17.67;;;9.07;;
81124;SDS011;72192;52.114;5.424;2023-08-24T09:29:28;11.77;;;7.18;;
81124;SDS011;72192;52.114;5.424;2023-08-24T09:32:29;16.08;;;7.85;;
81124;SDS011;72192;52.114;5.424;2023-08-24T09:35:19;10.85;;;7.10;;
81124;SDS011;72192;52.114;5.424;2023-08-24T09:38:15;9.98;;;6.47;;
81124;SDS011;72192;52.114;5.424;2023-08-24T09:41:08;14.15;;;7.25;;
81124;SDS011;72192;52.114;5.424;2023-08-24T09:44:02;10.95;;;6.88;;
81124;SDS011;72192;52.114;5.424;2023-08-24T09:46:52;12.23;;;7.18;;
81124;SDS011;72192;52.114;5.424;2023-08-24T09:49:21;11.45;;;6.68;;
81124;SDS011;72192;52.114;5.424;2023-08-24T09:52:10;11.45;;;7.07;;
81124;SDS011;72192;52.114;5.424;2023-08-24T09:55:04;15.05;;;7.35;;
81124;SDS011;72192;52.114;5.424;2023-08-24T09:57:56;13.38;;;7.53;;
81124;SDS011;72192;52.114;5.424;2023-08-24T10:00:47;11.88;;;6.70;;
81124;SDS011;72192;52.114;5.424;2023-08-24T10:03:37;13.43;;;7.25;;
81124;SDS011;72192;52.114;5.424;2023-08-24T10:06:28;15.15;;;6.82;;
81124;SDS011;72192;52.114;5.424;2023-08-24T10:09:27;11.70;;;7.82;;
81124;SDS011;72192;52.114;5.424;2023-08-24T10:12:31;13.90;;;7.35;;
81124;SDS011;72192;52.114;5.424;2023-08-24T10:15:28;13.75;;;7.63;;
81124;SDS011;72192;52.114;5.424;2023-08-24T10:18:22;13.20;;;7.88;;
81124;SDS011;72192;52.114;5.424;2023-08-24T10:21:12;12.52;;;7.65;;
81124;SDS011;72192;52.114;5.424;2023-08-24T10:24:02;12.63;;;7.80;;
81124;SDS011;72192;52.114;5.424;2023-08-24T10:26:50;13.38;;;7.65;;
81124;SDS011;72192;52.114;5.424;2023-08-24T10:29:41;11.98;;;7.32;;
81124;SDS011;72192;52.114;5.424;2023-08-24T10:32:29;12.45;;;7.63;;
81124;SDS011;72192;52.114;5.424;2023-08-24T10:35:20;14.00;;;8.07;;
81124;SDS011;72192;52.114;5.424;2023-08-24T10:38:22;14.30;;;8.73;;
81124;SDS011;72192;52.114;5.424;2023-08-24T10:41:15;15.63;;;8.45;;
81124;SDS011;72192;52.114;5.424;2023-08-24T10:44:06;18.52;;;10.57;;
81124;SDS011;72192;52.114;5.424;2023-08-24T10:50:13;15.32;;;9.63;;
81124;SDS011;72192;52.114;5.424;2023-08-24T10:53:01;15.77;;;9.45;;
81124;SDS011;72192;52.114;5.424;2023-08-24T10:55:50;15.82;;;9.85;;
81124;SDS011;72192;52.114;5.424;2023-08-24T10:59:14;17.67;;;12.45;;
81124;SDS011;72192;52.114;5.424;2023-08-24T11:02:04;19.20;;;11.73;;
81124;SDS011;72192;52.114;5.424;2023-08-24T11:05:05;17.50;;;10.57;;
81124;SDS011;72192;52.114;5.424;2023-08-24T11:07:56;15.70;;;10.15;;
81124;SDS011;72192;52.114;5.424;2023-08-24T11:10:49;15.27;;;9.73;;
81124;SDS011;72192;52.114;5.424;2023-08-24T11:13:40;16.35;;;10.43;;
81124;SDS011;72192;52.114;5.424;2023-08-24T11:17:18;17.48;;;10.77;;
81124;SDS011;72192;52.114;5.424;2023-08-24T11:20:00;15.93;;;9.48;;
81124;SDS011;72192;52.114;5.424;2023-08-24T11:22:50;17.75;;;10.23;;
81124;SDS011;72192;52.114;5.424;2023-08-24T11:25:44;17.48;;;10.15;;
81124;SDS011;72192;52.114;5.424;2023-08-24T11:28:33;18.00;;;10.57;;
81124;SDS011;72192;52.114;5.424;2023-08-24T11:31:25;20.33;;;10.68;;
81124;SDS011;72192;52.114;5.424;2023-08-24T11:34:17;19.88;;;11.02;;
81124;SDS011;72192;52.114;5.424;2023-08-24T11:37:05;16.65;;;10.85;;
81124;SDS011;72192;52.114;5.424;2023-08-24T11:42:56;15.55;;;9.93;;
81124;SDS011;72192;52.114;5.424;2023-08-24T11:45:45;17.10;;;10.38;;
81124;SDS011;72192;52.114;5.424;2023-08-24T11:48:34;16.55;;;10.80;;
81124;SDS011;72192;52.114;5.424;2023-08-24T11:51:23;19.73;;;11.10;;
81124;SDS011;72192;52.114;5.424;2023-08-24T11:54:12;15.98;;;10.68;;
81124;SDS011;72192;52.114;5.424;2023-08-24T11:57:00;16.58;;;10.60;;
81124;SDS011;72192;52.114;5.424;2023-08-24T11:59:48;15.55;;;10.45;;
81124;SDS011;72192;52.114;5.424;2023-08-24T12:02:37;15.27;;;9.88;;
81124;SDS011;72192;52.114;5.424;2023-08-24T12:05:25;16.20;;;10.48;;
81124;SDS011;72192;52.114;5.424;2023-08-24T12:08:14;17.75;;;10.45;;
81124;SDS011;72192;52.114;5.424;2023-08-24T12:11:03;15.85;;;10.00;;
81124;SDS011;72192;52.114;5.424;2023-08-24T12:13:57;15.30;;;10.30;;
81124;SDS011;72192;52.114;5.424;2023-08-24T12:16:45;13.57;;;9.38;;
81124;SDS011;72192;52.114;5.424;2023-08-24T12:19:36;19.30;;;11.32;;
81124;SDS011;72192;52.114;5.424;2023-08-24T12:22:26;18.45;;;9.82;;
81124;SDS011;72192;52.114;5.424;2023-08-24T12:25:14;17.40;;;10.10;;
81124;SDS011;72192;52.114;5.424;2023-08-24T12:28:09;17.85;;;10.30;;
81124;SDS011;72192;52.114;5.424;2023-08-24T12:31:02;16.48;;;10.75;;
81124;SDS011;72192;52.114;5.424;2023-08-24T12:34:06;17.00;;;10.88;;
81124;SDS011;72192;52.114;5.424;2023-08-24T12:36:55;17.15;;;10.90;;
81124;SDS011;72192;52.114;5.424;2023-08-24T12:39:43;25.40;;;16.85;;
81124;SDS011;72192;52.114;5.424;2023-08-24T12:42:32;16.02;;;9.90;;
81124;SDS011;72192;52.114;5.424;2023-08-24T12:45:20;17.65;;;10.73;;
81124;SDS011;72192;52.114;5.424;2023-08-24T12:48:09;16.27;;;11.23;;
81124;SDS011;72192;52.114;5.424;2023-08-24T12:50:58;17.00;;;11.20;;
81124;SDS011;72192;52.114;5.424;2023-08-24T12:53:46;15.65;;;10.45;;
81124;SDS011;72192;52.114;5.424;2023-08-24T12:56:34;16.23;;;10.80;;
81124;SDS011;72192;52.114;5.424;2023-08-24T12:59:23;18.27;;;11.70;;
81124;SDS011;72192;52.114;5.424;2023-08-24T13:02:11;17.00;;;11.23;;
81124;SDS011;72192;52.114;5.424;2023-08-24T13:04:59;15.63;;;10.18;;
81124;SDS011;72192;52.114;5.424;2023-08-24T13:07:50;16.83;;;10.75;;
81124;SDS011;72192;52.114;5.424;2023-08-24T13:10:38;15.05;;;10.93;;
81124;SDS011;72192;52.114;5.424;2023-08-24T13:13:26;21.80;;;11.27;;
81124;SDS011;72192;52.114;5.424;2023-08-24T13:16:16;18.02;;;10.32;;
81124;SDS011;72192;52.114;5.424;2023-08-24T13:19:04;15.35;;;10.32;;
81124;SDS011;72192;52.114;5.424;2023-08-24T13:21:53;16.92;;;9.70;;
81124;SDS011;72192;52.114;5.424;2023-08-24T13:24:42;14.60;;;9.85;;
81124;SDS011;72192;52.114;5.424;2023-08-24T13:27:31;17.83;;;9.60;;
81124;SDS011;72192;52.114;5.424;2023-08-24T13:30:19;14.52;;;9.63;;
81124;SDS011;72192;52.114;5.424;2023-08-24T13:33:08;18.55;;;11.43;;
81124;SDS011;72192;52.114;5.424;2023-08-24T13:35:56;13.77;;;9.10;;
81124;SDS011;72192;52.114;5.424;2023-08-24T13:38:45;17.25;;;9.73;;
81124;SDS011;72192;52.114;5.424;2023-08-24T13:41:36;16.92;;;10.77;;
81124;SDS011;72192;52.114;5.424;2023-08-24T13:44:26;14.73;;;9.80;;
81124;SDS011;72192;52.114;5.424;2023-08-24T13:47:15;18.05;;;11.18;;
81124;SDS011;72192;52.114;5.424;2023-08-24T13:50:04;13.95;;;9.90;;
81124;SDS011;72192;52.114;5.424;2023-08-24T13:52:53;15.40;;;10.77;;
81124;SDS011;72192;52.114;5.424;2023-08-24T13:55:43;17.33;;;11.30;;
81124;SDS011;72192;52.114;5.424;2023-08-24T13:58:32;20.00;;;11.65;;
81124;SDS011;72192;52.114;5.424;2023-08-24T14:01:20;19.27;;;10.93;;
81124;SDS011;72192;52.114;5.424;2023-08-24T14:04:08;14.30;;;10.88;;
81124;SDS011;72192;52.114;5.424;2023-08-24T14:06:57;18.23;;;11.00;;
81124;SDS011;72192;52.114;5.424;2023-08-24T14:09:45;17.67;;;11.45;;
81124;SDS011;72192;52.114;5.424;2023-08-24T14:12:34;18.88;;;13.60;;
81124;SDS011;72192;52.114;5.424;2023-08-24T14:15:03;17.60;;;12.77;;
81124;SDS011;72192;52.114;5.424;2023-08-24T14:17:47;22.55;;;12.65;;
81124;SDS011;72192;52.114;5.424;2023-08-24T14:20:35;21.95;;;13.05;;
81124;SDS011;72192;52.114;5.424;2023-08-24T14:23:23;22.13;;;15.90;;
81124;SDS011;72192;52.114;5.424;2023-08-24T14:26:03;21.35;;;14.30;;
81124;SDS011;72192;52.114;5.424;2023-08-24T14:28:47;25.63;;;16.15;;
81124;SDS011;72192;52.114;5.424;2023-08-24T14:31:37;23.92;;;15.50;;
81124;SDS011;72192;52.114;5.424;2023-08-24T14:34:18;22.42;;;14.65;;
81124;SDS011;72192;52.114;5.424;2023-08-24T14:36:59;23.13;;;15.40;;
81124;SDS011;72192;52.114;5.424;2023-08-24T14:39:47;19.95;;;13.43;;
81124;SDS011;72192;52.114;5.424;2023-08-24T14:42:28;16.20;;;11.90;;
81124;SDS011;72192;52.114;5.424;2023-08-24T14:45:16;18.52;;;12.70;;
81124;SDS011;72192;52.114;5.424;2023-08-24T14:48:04;20.63;;;12.88;;
81124;SDS011;72192;52.114;5.424;2023-08-24T14:50:47;19.77;;;12.48;;
81124;SDS011;72192;52.114;5.424;2023-08-24T14:53:41;17.85;;;12.10;;
81124;SDS011;72192;52.114;5.424;2023-08-24T14:56:29;20.27;;;11.27;;
81124;SDS011;72192;52.114;5.424;2023-08-24T14:59:10;18.63;;;11.23;;
81124;SDS011;72192;52.114;5.424;2023-08-24T15:01:38;17.08;;;9.80;;
81124;SDS011;72192;52.114;5.424;2023-08-24T15:04:20;17.85;;;10.25;;
81124;SDS011;72192;52.114;5.424;2023-08-24T15:07:08;17.20;;;10.20;;
81124;SDS011;72192;52.114;5.424;2023-08-24T15:09:57;18.88;;;10.60;;
81124;SDS011;72192;52.114;5.424;2023-08-24T15:12:47;20.05;;;10.68;;
81124;SDS011;72192;52.114;5.424;2023-08-24T15:15:27;17.85;;;10.38;;
81124;SDS011;72192;52.114;5.424;2023-08-24T15:18:07;16.90;;;10.45;;
81124;SDS011;72192;52.114;5.424;2023-08-24T15:20:49;20.17;;;11.05;;
81124;SDS011;72192;52.114;5.424;2023-08-24T15:23:29;16.30;;;9.90;;
81124;SDS011;72192;52.114;5.424;2023-08-24T15:26:19;14.95;;;9.15;;
81124;SDS011;72192;52.114;5.424;2023-08-24T15:32:01;15.70;;;8.70;;
81124;SDS011;72192;52.114;5.424;2023-08-24T15:34:41;15.63;;;8.57;;
81124;SDS011;72192;52.114;5.424;2023-08-24T15:37:21;11.52;;;8.23;;
81124;SDS011;72192;52.114;5.424;2023-08-24T15:40:01;13.93;;;8.65;;
81124;SDS011;72192;52.114;5.424;2023-08-24T15:42:51;12.65;;;7.85;;
81124;SDS011;72192;52.114;5.424;2023-08-24T15:45:39;12.48;;;7.72;;
81124;SDS011;72192;52.114;5.424;2023-08-24T15:48:25;13.13;;;7.80;;
81124;SDS011;72192;52.114;5.424;2023-08-24T15:51:05;13.13;;;6.97;;
81124;SDS011;72192;52.114;5.424;2023-08-24T15:53:44;13.40;;;7.18;;
81124;SDS011;72192;52.114;5.424;2023-08-24T15:56:24;13.13;;;5.75;;
81124;SDS011;72192;52.114;5.424;2023-08-24T15:59:10;10.73;;;5.60;;
81124;SDS011;72192;52.114;5.424;2023-08-24T16:01:50;12.63;;;5.13;;
81124;SDS011;72192;52.114;5.424;2023-08-24T16:04:29;9.38;;;4.60;;
81124;SDS011;72192;52.114;5.424;2023-08-24T16:10:00;9.52;;;4.43;;
81124;SDS011;72192;52.114;5.424;2023-08-24T16:12:44;9.02;;;4.10;;
81124;SDS011;72192;52.114;5.424;2023-08-24T16:15:32;9.05;;;4.25;;
81124;SDS011;72192;52.114;5.424;2023-08-24T16:18:24;10.27;;;4.63;;
81124;SDS011;72192;52.114;5.424;2023-08-24T16:21:14;9.40;;;4.35;;
81124;SDS011;72192;52.114;5.424;2023-08-24T16:23:57;8.73;;;4.50;;
81124;SDS011;72192;52.114;5.424;2023-08-24T16:26:40;9.07;;;4.47;;
81124;SDS011;72192;52.114;5.424;2023-08-24T16:29:20;8.95;;;4.50;;
81124;SDS011;72192;52.114;5.424;2023-08-24T16:32:12;10.55;;;4.15;;
81124;SDS011;72192;52.114;5.424;2023-08-24T16:35:00;10.07;;;4.57;;
81124;SDS011;72192;52.114;5.424;2023-08-24T16:37:50;8.73;;;4.15;;
81124;SDS011;72192;52.114;5.424;2023-08-24T16:40:38;10.30;;;4.00;;
81124;SDS011;72192;52.114;5.424;2023-08-24T16:43:26;7.25;;;3.70;;
81124;SDS011;72192;52.114;5.424;2023-08-24T16:46:06;8.13;;;3.63;;
81124;SDS011;72192;52.114;5.424;2023-08-24T16:48:46;10.88;;;3.90;;
81124;SDS011;72192;52.114;5.424;2023-08-24T16:51:34;7.40;;;3.75;;
81124;SDS011;72192;52.114;5.424;2023-08-24T16:54:16;8.27;;;3.45;;
81124;SDS011;72192;52.114;5.424;2023-08-24T16:56:56;6.53;;;3.33;;